AAL707 KDCA-KPWM
Flight info
| Callsign | AAL707 |
|---|---|
| Flight time | 1h 25m |
| Altitude | 37000 |
| Route | SOOKI6 SWANN BROSS Q419 RBV Q22 LLUND BDR SCOGS3 |
| Aircraft | B738/M-SDE2E3FGHIRWXY/LB1 |
Departure
| Time | 2026-05-03 21:45 |
|---|---|
| Airport | Ronald Reagan Washington National Airport (KDCA) |
Arrival
| Time | 2026-05-03 23:10 |
|---|---|
| Airport | Portland International Jetport (KPWM) |
| Time | Latitude | Longitude | Altitude | Speed | Heading |
|---|---|---|---|---|---|
| 2026-05-03 20:27 | 38.85646 | -77.04358 | 25 ft | 0 kts | 192° |
| 2026-05-03 21:25 | 38.85651 | -77.04357 | 25 ft | 3 kts | 192° |
| 2026-05-03 21:25 | 38.85669 | -77.04351 | 25 ft | 3 kts | 192° |
| 2026-05-03 21:25 | 38.85686 | -77.04351 | 28 ft | 3 kts | 143° |
| 2026-05-03 21:25 | 38.85693 | -77.04357 | 23 ft | 0 kts | 115° |
| 2026-05-03 21:29 | 38.85692 | -77.04353 | 23 ft | 4 kts | 112° |
| 2026-05-03 21:30 | 38.85703 | -77.04293 | 25 ft | 10 kts | 70° |
| 2026-05-03 21:30 | 38.85727 | -77.04200 | 23 ft | 11 kts | 72° |
| 2026-05-03 21:30 | 38.85724 | -77.04108 | 26 ft | 10 kts | 130° |
| 2026-05-03 21:30 | 38.85669 | -77.04050 | 25 ft | 9 kts | 154° |
| 2026-05-03 21:31 | 38.85591 | -77.04037 | 27 ft | 13 kts | 175° |
| 2026-05-03 21:31 | 38.85515 | -77.04018 | 23 ft | 11 kts | 163° |
| 2026-05-03 21:31 | 38.85438 | -77.04005 | 24 ft | 11 kts | 176° |
| 2026-05-03 21:31 | 38.85372 | -77.03999 | 25 ft | 8 kts | 174° |
| 2026-05-03 21:32 | 38.85334 | -77.03946 | 26 ft | 11 kts | 133° |
| 2026-05-03 21:32 | 38.85214 | -77.03923 | 23 ft | 24 kts | 174° |
| 2026-05-03 21:32 | 38.85051 | -77.03908 | 27 ft | 19 kts | 175° |
| 2026-05-03 21:32 | 38.84949 | -77.03897 | 25 ft | 14 kts | 175° |
| 2026-05-03 21:33 | 38.84850 | -77.03886 | 23 ft | 14 kts | 175° |
| 2026-05-03 21:33 | 38.84766 | -77.03877 | 23 ft | 11 kts | 175° |
| 2026-05-03 21:33 | 38.84686 | -77.03870 | 26 ft | 16 kts | 175° |
| 2026-05-03 21:33 | 38.84551 | -77.03857 | 24 ft | 20 kts | 176° |
| 2026-05-03 21:34 | 38.84467 | -77.03848 | 24 ft | 4 kts | 174° |
| 2026-05-03 21:34 | 38.84465 | -77.03848 | 24 ft | 0 kts | 174° |
| 2026-05-03 21:34 | 38.84453 | -77.03846 | 24 ft | 7 kts | 174° |
| 2026-05-03 21:34 | 38.84388 | -77.03839 | 27 ft | 10 kts | 176° |
| 2026-05-03 21:35 | 38.84335 | -77.03835 | 24 ft | 2 kts | 176° |
| 2026-05-03 21:35 | 38.84328 | -77.03834 | 24 ft | 0 kts | 176° |
| 2026-05-03 21:36 | 38.84325 | -77.03834 | 24 ft | 1 kts | 176° |
| 2026-05-03 21:36 | 38.84324 | -77.03834 | 24 ft | 0 kts | 176° |
| 2026-05-03 21:36 | 38.84322 | -77.03834 | 24 ft | 0 kts | 176° |
| 2026-05-03 21:37 | 38.84312 | -77.03848 | 26 ft | 5 kts | 240° |
| 2026-05-03 21:37 | 38.84292 | -77.03888 | 25 ft | 9 kts | 217° |
| 2026-05-03 21:38 | 38.84250 | -77.03884 | 25 ft | 0 kts | 153° |
| 2026-05-03 21:38 | 38.84249 | -77.03883 | 26 ft | 0 kts | 153° |
| 2026-05-03 21:39 | 38.84248 | -77.03883 | 26 ft | 1 kts | 153° |
| 2026-05-03 21:39 | 38.84233 | -77.03864 | 26 ft | 2 kts | 133° |
| 2026-05-03 21:39 | 38.84228 | -77.03857 | 24 ft | 0 kts | 132° |
| 2026-05-03 21:41 | 38.84220 | -77.03845 | 24 ft | 7 kts | 128° |
| 2026-05-03 21:41 | 38.84193 | -77.03796 | 23 ft | 5 kts | 123° |
| 2026-05-03 21:41 | 38.84192 | -77.03794 | 23 ft | 0 kts | 122° |
| 2026-05-03 21:42 | 38.84192 | -77.03793 | 23 ft | 0 kts | 122° |
| 2026-05-03 21:43 | 38.84188 | -77.03736 | 23 ft | 9 kts | 78° |
| 2026-05-03 21:43 | 38.84222 | -77.03687 | 25 ft | 4 kts | 5° |
| 2026-05-03 21:43 | 38.84224 | -77.03687 | 24 ft | 0 kts | 4° |
| 2026-05-03 21:44 | 38.84297 | -77.03690 | 23 ft | 22 kts | 356° |
| 2026-05-03 21:44 | 38.84520 | -77.03709 | 28 ft | 52 kts | 356° |
| 2026-05-03 21:45 | 38.85100 | -77.03773 | 27 ft | 114 kts | 355° |
| 2026-05-03 21:45 | 38.86066 | -77.03871 | 148 ft | 156 kts | 354° |
| 2026-05-03 21:45 | 38.87185 | -77.03977 | 630 ft | 169 kts | 345° |
| 2026-05-03 21:45 | 38.88135 | -77.04673 | 1524 ft | 152 kts | 314° |
| 2026-05-03 21:46 | 38.88955 | -77.05608 | 2358 ft | 157 kts | 313° |
| 2026-05-03 21:46 | 38.89695 | -77.06627 | 3323 ft | 155 kts | 305° |
| 2026-05-03 21:46 | 38.90304 | -77.07795 | 4158 ft | 160 kts | 297° |
| 2026-05-03 21:46 | 38.90782 | -77.09106 | 4920 ft | 169 kts | 295° |
| 2026-05-03 21:47 | 38.91383 | -77.10473 | 5579 ft | 185 kts | 307° |
| 2026-05-03 21:47 | 38.92333 | -77.11715 | 6083 ft | 205 kts | 317° |
| 2026-05-03 21:47 | 38.93502 | -77.12888 | 6760 ft | 222 kts | 323° |
| 2026-05-03 21:47 | 38.94864 | -77.13900 | 7685 ft | 230 kts | 332° |
| 2026-05-03 21:48 | 38.96409 | -77.14643 | 8483 ft | 248 kts | 342° |
| 2026-05-03 21:48 | 38.98227 | -77.14866 | 9031 ft | 276 kts | 4° |
| 2026-05-03 21:48 | 39.00040 | -77.14069 | 10173 ft | 279 kts | 25° |
| 2026-05-03 21:48 | 39.01634 | -77.12605 | 11169 ft | 287 kts | 34° |
| 2026-05-03 21:49 | 39.03111 | -77.10777 | 11711 ft | 307 kts | 45° |
| 2026-05-03 21:49 | 39.04264 | -77.08484 | 12766 ft | 315 kts | 57° |
| 2026-05-03 21:49 | 39.04972 | -77.05628 | 12962 ft | 352 kts | 75° |
| 2026-05-03 21:49 | 39.05374 | -77.02450 | 13533 ft | 368 kts | 79° |
| 2026-05-03 21:50 | 39.05645 | -76.99128 | 14266 ft | 378 kts | 81° |
| 2026-05-03 21:50 | 39.05955 | -76.95757 | 15053 ft | 384 kts | 78° |
| 2026-05-03 21:50 | 39.06371 | -76.92338 | 15853 ft | 389 kts | 76° |
| 2026-05-03 21:50 | 39.06858 | -76.88885 | 16623 ft | 395 kts | 76° |
| 2026-05-03 21:51 | 39.07343 | -76.85432 | 17377 ft | 401 kts | 76° |
| 2026-05-03 21:51 | 39.07809 | -76.81858 | 18127 ft | 408 kts | 77° |
| 2026-05-03 21:51 | 39.08251 | -76.78234 | 18855 ft | 414 kts | 77° |
| 2026-05-03 21:51 | 39.08697 | -76.74548 | 19582 ft | 419 kts | 77° |
| 2026-05-03 21:52 | 39.09177 | -76.70829 | 20264 ft | 424 kts | 76° |
| 2026-05-03 21:52 | 39.09728 | -76.67008 | 20960 ft | 429 kts | 75° |
| 2026-05-03 21:52 | 39.10288 | -76.63276 | 21618 ft | 434 kts | 75° |
| 2026-05-03 21:52 | 39.10843 | -76.59485 | 22289 ft | 438 kts | 76° |
| 2026-05-03 21:53 | 39.11386 | -76.55598 | 22916 ft | 443 kts | 76° |
| 2026-05-03 21:53 | 39.11921 | -76.51679 | 23509 ft | 448 kts | 76° |
| 2026-05-03 21:53 | 39.12417 | -76.47692 | 24102 ft | 453 kts | 77° |
| 2026-05-03 21:53 | 39.12855 | -76.43664 | 24650 ft | 458 kts | 78° |
| 2026-05-03 21:54 | 39.13276 | -76.39576 | 25166 ft | 462 kts | 78° |
| 2026-05-03 21:54 | 39.13720 | -76.35449 | 25654 ft | 467 kts | 78° |
| 2026-05-03 21:54 | 39.14191 | -76.31300 | 26124 ft | 471 kts | 78° |
| 2026-05-03 21:54 | 39.14677 | -76.27111 | 26577 ft | 476 kts | 78° |
| 2026-05-03 21:55 | 39.15154 | -76.22927 | 27017 ft | 480 kts | 78° |
| 2026-05-03 21:55 | 39.15636 | -76.18652 | 27448 ft | 484 kts | 78° |
| 2026-05-03 21:55 | 39.16126 | -76.14352 | 27868 ft | 487 kts | 78° |
| 2026-05-03 21:55 | 39.16627 | -76.10016 | 28283 ft | 491 kts | 78° |
| 2026-05-03 21:56 | 39.17131 | -76.05659 | 28652 ft | 494 kts | 78° |
| 2026-05-03 21:56 | 39.17634 | -76.01256 | 29016 ft | 498 kts | 78° |
| 2026-05-03 21:56 | 39.18149 | -75.96824 | 29358 ft | 500 kts | 76° |
| 2026-05-03 21:56 | 39.19063 | -75.92521 | 29709 ft | 497 kts | 65° |
| 2026-05-03 21:57 | 39.20508 | -75.88511 | 30033 ft | 492 kts | 54° |
| 2026-05-03 21:57 | 39.22420 | -75.84955 | 30349 ft | 485 kts | 43° |
| 2026-05-03 21:57 | 39.24770 | -75.81870 | 30605 ft | 479 kts | 33° |
| 2026-05-03 21:57 | 39.27320 | -75.79075 | 30817 ft | 483 kts | 32° |
| 2026-05-03 21:58 | 39.29898 | -75.76279 | 31170 ft | 484 kts | 32° |
| 2026-05-03 21:58 | 39.32483 | -75.73476 | 31515 ft | 485 kts | 33° |
| 2026-05-03 21:58 | 39.35060 | -75.70658 | 31881 ft | 486 kts | 33° |
| 2026-05-03 21:58 | 39.37635 | -75.67827 | 32234 ft | 487 kts | 33° |
| 2026-05-03 21:59 | 39.40182 | -75.65018 | 32577 ft | 487 kts | 33° |
| 2026-05-03 21:59 | 39.42768 | -75.62168 | 32905 ft | 489 kts | 33° |
| 2026-05-03 21:59 | 39.45355 | -75.59326 | 33220 ft | 489 kts | 33° |
| 2026-05-03 21:59 | 39.47956 | -75.56468 | 33545 ft | 490 kts | 33° |
| 2026-05-03 22:00 | 39.50551 | -75.53612 | 33859 ft | 491 kts | 33° |
| 2026-05-03 22:00 | 39.53160 | -75.50732 | 34158 ft | 492 kts | 34° |
| 2026-05-03 22:00 | 39.55767 | -75.47849 | 34479 ft | 493 kts | 34° |
| 2026-05-03 22:00 | 39.58383 | -75.44953 | 34785 ft | 494 kts | 34° |
| 2026-05-03 22:01 | 39.61000 | -75.42055 | 35089 ft | 495 kts | 34° |
| 2026-05-03 22:01 | 39.63584 | -75.39194 | 35390 ft | 496 kts | 34° |
| 2026-05-03 22:01 | 39.66206 | -75.36287 | 35672 ft | 496 kts | 34° |
| 2026-05-03 22:01 | 39.68834 | -75.33370 | 35962 ft | 497 kts | 34° |
| 2026-05-03 22:02 | 39.71459 | -75.30453 | 36244 ft | 498 kts | 34° |
| 2026-05-03 22:02 | 39.74096 | -75.27517 | 36503 ft | 499 kts | 34° |
| 2026-05-03 22:02 | 39.76729 | -75.24582 | 36775 ft | 500 kts | 34° |
| 2026-05-03 22:02 | 39.79322 | -75.21547 | 37001 ft | 506 kts | 40° |
| 2026-05-03 22:03 | 39.84045 | -75.14647 | 37003 ft | 508 kts | 44° |
| 2026-05-03 22:03 | 39.88582 | -75.07835 | 37008 ft | 500 kts | 44° |
| 2026-05-03 22:04 | 39.93177 | -75.01014 | 37003 ft | 502 kts | 44° |
| 2026-05-03 22:04 | 39.97644 | -74.94008 | 37009 ft | 506 kts | 52° |
| 2026-05-03 22:05 | 40.01561 | -74.86368 | 36993 ft | 507 kts | 52° |
| 2026-05-03 22:05 | 40.05407 | -74.78779 | 36988 ft | 499 kts | 53° |
| 2026-05-03 22:06 | 40.09250 | -74.71228 | 36986 ft | 501 kts | 53° |
| 2026-05-03 22:06 | 40.13113 | -74.63626 | 36981 ft | 503 kts | 53° |
| 2026-05-03 22:07 | 40.16964 | -74.55996 | 36980 ft | 503 kts | 53° |
| 2026-05-03 22:07 | 40.21155 | -74.48731 | 36987 ft | 496 kts | 39° |
| 2026-05-03 22:08 | 40.26331 | -74.42987 | 36985 ft | 491 kts | 34° |
| 2026-05-03 22:08 | 40.31636 | -74.37341 | 36971 ft | 492 kts | 33° |
| 2026-05-03 22:09 | 40.36940 | -74.31669 | 36960 ft | 492 kts | 34° |
| 2026-05-03 22:10 | 40.44872 | -74.23135 | 36959 ft | 491 kts | 34° |
| 2026-05-03 22:10 | 40.50124 | -74.17487 | 36950 ft | 491 kts | 34° |
| 2026-05-03 22:11 | 40.55410 | -74.11781 | 36950 ft | 491 kts | 34° |
| 2026-05-03 22:11 | 40.60681 | -74.06082 | 36951 ft | 491 kts | 34° |
| 2026-05-03 22:12 | 40.65946 | -74.00379 | 36953 ft | 490 kts | 34° |
| 2026-05-03 22:12 | 40.71217 | -73.94655 | 36952 ft | 491 kts | 34° |
| 2026-05-03 22:13 | 40.76455 | -73.88955 | 36945 ft | 491 kts | 34° |
| 2026-05-03 22:13 | 40.81719 | -73.83211 | 36934 ft | 490 kts | 34° |
| 2026-05-03 22:14 | 40.86668 | -73.76987 | 36939 ft | 497 kts | 49° |
| 2026-05-03 22:14 | 40.90362 | -73.69340 | 36930 ft | 502 kts | 56° |
| 2026-05-03 22:15 | 40.93939 | -73.61429 | 36916 ft | 501 kts | 56° |
| 2026-05-03 22:15 | 40.97493 | -73.53600 | 36922 ft | 499 kts | 56° |
| 2026-05-03 22:16 | 41.01077 | -73.45736 | 36928 ft | 499 kts | 56° |
| 2026-05-03 22:16 | 41.04649 | -73.37835 | 36923 ft | 499 kts | 57° |
| 2026-05-03 22:17 | 41.08208 | -73.29941 | 36906 ft | 499 kts | 57° |
| 2026-05-03 22:17 | 41.11743 | -73.22097 | 36907 ft | 499 kts | 57° |
| 2026-05-03 22:18 | 41.15288 | -73.14198 | 36910 ft | 498 kts | 57° |
| 2026-05-03 22:18 | 41.18894 | -73.06328 | 36912 ft | 498 kts | 55° |
| 2026-05-03 22:19 | 41.22619 | -72.98580 | 36908 ft | 498 kts | 55° |
| 2026-05-03 22:19 | 41.26251 | -72.90827 | 36916 ft | 498 kts | 56° |
| 2026-05-03 22:20 | 41.29889 | -72.82989 | 36913 ft | 498 kts | 56° |
| 2026-05-03 22:20 | 41.33555 | -72.75168 | 36919 ft | 499 kts | 56° |
| 2026-05-03 22:21 | 41.37211 | -72.67313 | 36916 ft | 498 kts | 56° |
| 2026-05-03 22:21 | 41.40821 | -72.59523 | 36915 ft | 497 kts | 56° |
| 2026-05-03 22:22 | 41.44454 | -72.51684 | 36900 ft | 497 kts | 56° |
| 2026-05-03 22:22 | 41.48080 | -72.43833 | 36900 ft | 497 kts | 57° |
| 2026-05-03 22:23 | 41.51698 | -72.35972 | 36909 ft | 497 kts | 57° |
| 2026-05-03 22:23 | 41.55307 | -72.28120 | 36904 ft | 496 kts | 57° |
| 2026-05-03 22:24 | 41.58888 | -72.20304 | 36905 ft | 496 kts | 57° |
| 2026-05-03 22:24 | 41.62476 | -72.12452 | 36893 ft | 495 kts | 57° |
| 2026-05-03 22:25 | 41.66055 | -72.04600 | 36909 ft | 494 kts | 57° |
| 2026-05-03 22:25 | 41.69636 | -71.96726 | 36895 ft | 496 kts | 57° |
| 2026-05-03 22:26 | 41.73184 | -71.88897 | 36904 ft | 496 kts | 57° |
| 2026-05-03 22:26 | 41.76760 | -71.80993 | 36899 ft | 496 kts | 57° |
| 2026-05-03 22:27 | 41.80333 | -71.73072 | 36882 ft | 496 kts | 57° |
| 2026-05-03 22:27 | 41.83291 | -71.66493 | 36876 ft | 496 kts | 57° |
| 2026-05-03 22:28 | 41.86952 | -71.56929 | 36872 ft | 497 kts | 63° |
| 2026-05-03 22:28 | 41.89960 | -71.48576 | 36872 ft | 497 kts | 63° |
| 2026-05-03 22:29 | 41.92456 | -71.41612 | 36867 ft | 498 kts | 63° |
| 2026-05-03 22:29 | 41.95465 | -71.33221 | 36866 ft | 498 kts | 63° |
| 2026-05-03 22:30 | 41.98952 | -71.23458 | 36859 ft | 500 kts | 64° |
| 2026-05-03 22:30 | 42.01461 | -71.16405 | 36860 ft | 500 kts | 64° |
| 2026-05-03 22:31 | 42.04412 | -71.08094 | 36857 ft | 491 kts | 64° |
| 2026-05-03 22:31 | 42.07419 | -70.99861 | 36505 ft | 498 kts | 58° |
| 2026-05-03 22:31 | 42.09508 | -70.96128 | 35633 ft | 503 kts | 44° |
| 2026-05-03 22:32 | 42.12143 | -70.93041 | 34836 ft | 502 kts | 32° |
| 2026-05-03 22:32 | 42.15167 | -70.90708 | 33978 ft | 500 kts | 20° |
| 2026-05-03 22:32 | 42.18412 | -70.89067 | 33116 ft | 499 kts | 16° |
| 2026-05-03 22:32 | 42.21650 | -70.87540 | 32560 ft | 486 kts | 15° |
| 2026-05-03 22:33 | 42.24818 | -70.86074 | 31985 ft | 476 kts | 15° |
| 2026-05-03 22:33 | 42.27892 | -70.84660 | 31433 ft | 472 kts | 15° |
| 2026-05-03 22:33 | 42.30986 | -70.83227 | 30862 ft | 467 kts | 15° |
| 2026-05-03 22:33 | 42.34037 | -70.81795 | 30292 ft | 463 kts | 15° |
| 2026-05-03 22:34 | 42.37067 | -70.80364 | 29724 ft | 458 kts | 15° |
| 2026-05-03 22:34 | 42.40066 | -70.78950 | 29150 ft | 454 kts | 15° |
| 2026-05-03 22:34 | 42.43028 | -70.77560 | 28570 ft | 450 kts | 15° |
| 2026-05-03 22:34 | 42.45924 | -70.76140 | 27983 ft | 447 kts | 18° |
| 2026-05-03 22:35 | 42.48830 | -70.74546 | 27385 ft | 444 kts | 19° |
| 2026-05-03 22:35 | 42.51623 | -70.72921 | 26803 ft | 441 kts | 20° |
| 2026-05-03 22:35 | 42.54432 | -70.71305 | 26202 ft | 437 kts | 19° |
| 2026-05-03 22:35 | 42.57244 | -70.69751 | 25606 ft | 435 kts | 18° |
| 2026-05-03 22:36 | 42.60047 | -70.68243 | 25000 ft | 433 kts | 18° |
| 2026-05-03 22:36 | 42.62847 | -70.66732 | 24405 ft | 432 kts | 19° |
| 2026-05-03 22:36 | 42.65630 | -70.65205 | 23795 ft | 431 kts | 19° |
| 2026-05-03 22:36 | 42.68391 | -70.63662 | 23169 ft | 429 kts | 20° |
| 2026-05-03 22:37 | 42.71120 | -70.62013 | 22551 ft | 428 kts | 22° |
| 2026-05-03 22:37 | 42.73770 | -70.60292 | 21936 ft | 426 kts | 22° |
| 2026-05-03 22:37 | 42.76420 | -70.58548 | 21490 ft | 419 kts | 22° |
| 2026-05-03 22:37 | 42.79047 | -70.56861 | 20951 ft | 415 kts | 21° |
| 2026-05-03 22:38 | 42.81663 | -70.55229 | 20319 ft | 414 kts | 21° |
| 2026-05-03 22:38 | 42.84284 | -70.53610 | 19663 ft | 412 kts | 21° |
| 2026-05-03 22:38 | 42.86892 | -70.51981 | 18997 ft | 411 kts | 21° |
| 2026-05-03 22:38 | 42.89479 | -70.50344 | 18322 ft | 410 kts | 21° |
| 2026-05-03 22:39 | 42.92061 | -70.48700 | 17644 ft | 407 kts | 21° |
| 2026-05-03 22:39 | 42.94590 | -70.47092 | 16971 ft | 395 kts | 21° |
| 2026-05-03 22:39 | 42.97009 | -70.45558 | 16334 ft | 384 kts | 21° |
| 2026-05-03 22:39 | 42.99405 | -70.44040 | 15655 ft | 375 kts | 21° |
| 2026-05-03 22:40 | 43.01732 | -70.42558 | 15026 ft | 365 kts | 23° |
| 2026-05-03 22:40 | 43.03875 | -70.40739 | 14419 ft | 358 kts | 29° |
| 2026-05-03 22:40 | 43.05952 | -70.38938 | 13807 ft | 349 kts | 28° |
| 2026-05-03 22:40 | 43.07780 | -70.36814 | 13233 ft | 346 kts | 45° |
| 2026-05-03 22:41 | 43.09326 | -70.34325 | 12639 ft | 341 kts | 46° |
| 2026-05-03 22:41 | 43.10830 | -70.31839 | 12070 ft | 338 kts | 46° |
| 2026-05-03 22:41 | 43.12290 | -70.29405 | 11605 ft | 331 kts | 46° |
| 2026-05-03 22:41 | 43.13730 | -70.26983 | 11180 ft | 324 kts | 46° |
| 2026-05-03 22:42 | 43.15120 | -70.24618 | 10760 ft | 316 kts | 46° |
| 2026-05-03 22:42 | 43.16472 | -70.22289 | 10336 ft | 308 kts | 46° |
| 2026-05-03 22:42 | 43.17776 | -70.20014 | 10074 ft | 297 kts | 46° |
| 2026-05-03 22:42 | 43.19010 | -70.17828 | 9877 ft | 286 kts | 46° |
| 2026-05-03 22:43 | 43.20208 | -70.15684 | 9666 ft | 280 kts | 46° |
| 2026-05-03 22:43 | 43.21386 | -70.13566 | 9333 ft | 279 kts | 46° |
| 2026-05-03 22:43 | 43.22526 | -70.11489 | 8982 ft | 273 kts | 46° |
| 2026-05-03 22:43 | 43.23657 | -70.09409 | 8628 ft | 270 kts | 46° |
| 2026-05-03 22:44 | 43.24767 | -70.07354 | 8274 ft | 267 kts | 46° |
| 2026-05-03 22:44 | 43.25866 | -70.05305 | 7959 ft | 266 kts | 46° |
| 2026-05-03 22:44 | 43.26960 | -70.03263 | 7712 ft | 265 kts | 46° |
| 2026-05-03 22:44 | 43.28042 | -70.01235 | 7453 ft | 264 kts | 46° |
| 2026-05-03 22:45 | 43.29126 | -69.99199 | 7200 ft | 262 kts | 46° |
| 2026-05-03 22:45 | 43.30191 | -69.97184 | 7046 ft | 261 kts | 46° |
| 2026-05-03 22:45 | 43.31250 | -69.95169 | 6936 ft | 259 kts | 46° |
| 2026-05-03 22:45 | 43.32290 | -69.93188 | 6786 ft | 259 kts | 46° |
| 2026-05-03 22:46 | 43.33342 | -69.91183 | 6632 ft | 260 kts | 46° |
| 2026-05-03 22:46 | 43.34524 | -69.89362 | 6486 ft | 249 kts | 27° |
| 2026-05-03 22:46 | 43.36075 | -69.88585 | 6347 ft | 233 kts | 359° |
| 2026-05-03 22:46 | 43.37632 | -69.88778 | 6197 ft | 219 kts | 348° |
| 2026-05-03 22:47 | 43.39109 | -69.89142 | 6045 ft | 212 kts | 346° |
| 2026-05-03 22:47 | 43.40561 | -69.89516 | 5895 ft | 213 kts | 346° |
| 2026-05-03 22:47 | 43.42011 | -69.89893 | 5779 ft | 211 kts | 346° |
| 2026-05-03 22:47 | 43.43439 | -69.90265 | 5662 ft | 212 kts | 346° |
| 2026-05-03 22:48 | 43.44869 | -69.90644 | 5542 ft | 206 kts | 346° |
| 2026-05-03 22:48 | 43.46240 | -69.91055 | 5422 ft | 199 kts | 345° |
| 2026-05-03 22:48 | 43.47568 | -69.91479 | 5317 ft | 193 kts | 345° |
| 2026-05-03 22:48 | 43.48869 | -69.91904 | 5204 ft | 191 kts | 345° |
| 2026-05-03 22:49 | 43.50163 | -69.92335 | 5088 ft | 191 kts | 344° |
| 2026-05-03 22:49 | 43.51457 | -69.92765 | 4977 ft | 190 kts | 344° |
| 2026-05-03 22:49 | 43.52695 | -69.93170 | 4878 ft | 176 kts | 344° |
| 2026-05-03 22:49 | 43.53865 | -69.93551 | 4781 ft | 170 kts | 344° |
| 2026-05-03 22:50 | 43.54968 | -69.93908 | 4654 ft | 156 kts | 344° |
| 2026-05-03 22:50 | 43.55985 | -69.94234 | 4531 ft | 150 kts | 344° |
| 2026-05-03 22:50 | 43.56982 | -69.94554 | 4411 ft | 145 kts | 345° |
| 2026-05-03 22:50 | 43.57950 | -69.94862 | 4296 ft | 141 kts | 345° |
| 2026-05-03 22:51 | 43.58902 | -69.95167 | 4178 ft | 140 kts | 344° |
| 2026-05-03 22:51 | 43.59840 | -69.95470 | 4059 ft | 138 kts | 344° |
| 2026-05-03 22:51 | 43.60768 | -69.95805 | 3927 ft | 138 kts | 336° |
| 2026-05-03 22:51 | 43.61568 | -69.96531 | 3783 ft | 141 kts | 318° |
| 2026-05-03 22:52 | 43.62110 | -69.97670 | 3614 ft | 144 kts | 297° |
| 2026-05-03 22:52 | 43.62283 | -69.99045 | 3509 ft | 150 kts | 285° |
| 2026-05-03 22:52 | 43.62387 | -70.00479 | 3369 ft | 151 kts | 285° |
| 2026-05-03 22:52 | 43.62492 | -70.01957 | 3248 ft | 158 kts | 283° |
| 2026-05-03 22:53 | 43.62594 | -70.03462 | 3129 ft | 158 kts | 282° |
| 2026-05-03 22:53 | 43.62697 | -70.04967 | 3052 ft | 158 kts | 283° |
| 2026-05-03 22:53 | 43.62801 | -70.06473 | 2974 ft | 154 kts | 283° |
| 2026-05-03 22:53 | 43.62903 | -70.07925 | 2895 ft | 151 kts | 283° |
| 2026-05-03 22:54 | 43.63003 | -70.09373 | 2825 ft | 151 kts | 283° |
| 2026-05-03 22:54 | 43.63103 | -70.10814 | 2747 ft | 151 kts | 283° |
| 2026-05-03 22:54 | 43.63204 | -70.12265 | 2552 ft | 152 kts | 282° |
| 2026-05-03 22:54 | 43.63301 | -70.13679 | 2358 ft | 150 kts | 281° |
| 2026-05-03 22:55 | 43.63399 | -70.15123 | 2164 ft | 146 kts | 281° |
| 2026-05-03 22:55 | 43.63490 | -70.16464 | 1972 ft | 140 kts | 281° |
| 2026-05-03 22:55 | 43.63581 | -70.17776 | 1786 ft | 136 kts | 280° |
| 2026-05-03 22:55 | 43.63669 | -70.19066 | 1613 ft | 134 kts | 279° |
| 2026-05-03 22:56 | 43.63757 | -70.20348 | 1424 ft | 134 kts | 279° |
| 2026-05-03 22:56 | 43.63844 | -70.21626 | 1251 ft | 133 kts | 278° |
| 2026-05-03 22:56 | 43.63931 | -70.22894 | 1083 ft | 133 kts | 278° |
| 2026-05-03 22:56 | 43.64017 | -70.24166 | 906 ft | 132 kts | 278° |
| 2026-05-03 22:57 | 43.64102 | -70.25430 | 727 ft | 133 kts | 278° |
| 2026-05-03 22:57 | 43.64178 | -70.26703 | 550 ft | 131 kts | 277° |
| 2026-05-03 22:57 | 43.64253 | -70.27973 | 373 ft | 139 kts | 280° |
| 2026-05-03 22:57 | 43.64289 | -70.29280 | 205 ft | 136 kts | 274° |
| 2026-05-03 22:58 | 43.64270 | -70.30625 | 232 ft | 141 kts | 270° |
| 2026-05-03 22:58 | 43.64393 | -70.32050 | 517 ft | 159 kts | 292° |
| 2026-05-03 22:58 | 43.64727 | -70.33562 | 1097 ft | 167 kts | 280° |
| 2026-05-03 22:58 | 43.64835 | -70.35092 | 1648 ft | 162 kts | 282° |
| 2026-05-03 22:59 | 43.65092 | -70.36695 | 1946 ft | 178 kts | 287° |
| 2026-05-03 22:59 | 43.65290 | -70.38357 | 2567 ft | 179 kts | 265° |
| 2026-05-03 22:59 | 43.64551 | -70.39732 | 3269 ft | 196 kts | 214° |
| 2026-05-03 22:59 | 43.63179 | -70.40007 | 3914 ft | 208 kts | 171° |
| 2026-05-03 23:00 | 43.61911 | -70.39159 | 4648 ft | 201 kts | 136° |
| 2026-05-03 23:00 | 43.60932 | -70.37818 | 5061 ft | 208 kts | 131° |
| 2026-05-03 23:00 | 43.60006 | -70.36126 | 4985 ft | 229 kts | 108° |
| 2026-05-03 23:00 | 43.59574 | -70.34110 | 5296 ft | 217 kts | 96° |
| 2026-05-03 23:01 | 43.59249 | -70.31992 | 5123 ft | 235 kts | 94° |
| 2026-05-03 23:01 | 43.58809 | -70.29670 | 4825 ft | 261 kts | 108° |
| 2026-05-03 23:01 | 43.58220 | -70.27299 | 4802 ft | 263 kts | 100° |
| 2026-05-03 23:01 | 43.57749 | -70.24853 | 4761 ft | 277 kts | 99° |
| 2026-05-03 23:02 | 43.57264 | -70.22271 | 4764 ft | 274 kts | 99° |
| 2026-05-03 23:02 | 43.56790 | -70.19784 | 4749 ft | 266 kts | 99° |
| 2026-05-03 23:02 | 43.56317 | -70.17335 | 4740 ft | 262 kts | 99° |
| 2026-05-03 23:02 | 43.55845 | -70.14928 | 4739 ft | 258 kts | 99° |
| 2026-05-03 23:03 | 43.55374 | -70.12548 | 4739 ft | 258 kts | 99° |
| 2026-05-03 23:03 | 43.54901 | -70.10153 | 4738 ft | 258 kts | 99° |
| 2026-05-03 23:03 | 43.54430 | -70.07766 | 4684 ft | 261 kts | 99° |
| 2026-05-03 23:03 | 43.53968 | -70.05348 | 4413 ft | 262 kts | 96° |
| 2026-05-03 23:04 | 43.54041 | -70.02952 | 4177 ft | 243 kts | 64° |
| 2026-05-03 23:04 | 43.54917 | -70.01122 | 4022 ft | 222 kts | 32° |
| 2026-05-03 23:04 | 43.56263 | -70.00326 | 3849 ft | 208 kts | 0° |
| 2026-05-03 23:04 | 43.57681 | -70.00558 | 3692 ft | 205 kts | 346° |
| 2026-05-03 23:05 | 43.59063 | -70.01035 | 3510 ft | 205 kts | 343° |
| 2026-05-03 23:05 | 43.60434 | -70.01564 | 3319 ft | 204 kts | 338° |
| 2026-05-03 23:05 | 43.61624 | -70.02607 | 3146 ft | 205 kts | 318° |
| 2026-05-03 23:05 | 43.62452 | -70.04195 | 2976 ft | 211 kts | 298° |
| 2026-05-03 23:06 | 43.62787 | -70.06189 | 2820 ft | 216 kts | 281° |
| 2026-05-03 23:06 | 43.62923 | -70.08168 | 2775 ft | 197 kts | 281° |
| 2026-05-03 23:06 | 43.63041 | -70.09947 | 2752 ft | 178 kts | 282° |
| 2026-05-03 23:06 | 43.63156 | -70.11609 | 2640 ft | 172 kts | 281° |
| 2026-05-03 23:07 | 43.63265 | -70.13204 | 2425 ft | 163 kts | 281° |
| 2026-05-03 23:07 | 43.63369 | -70.14714 | 2214 ft | 155 kts | 281° |
| 2026-05-03 23:07 | 43.63471 | -70.16183 | 2007 ft | 152 kts | 280° |
| 2026-05-03 23:07 | 43.63571 | -70.17638 | 1803 ft | 151 kts | 280° |
| 2026-05-03 23:08 | 43.63666 | -70.19030 | 1608 ft | 144 kts | 280° |
| 2026-05-03 23:08 | 43.63760 | -70.20389 | 1408 ft | 141 kts | 280° |
| 2026-05-03 23:08 | 43.63851 | -70.21729 | 1249 ft | 139 kts | 278° |
| 2026-05-03 23:08 | 43.63940 | -70.23044 | 1060 ft | 137 kts | 278° |
| 2026-05-03 23:09 | 43.64029 | -70.24360 | 880 ft | 138 kts | 278° |
| 2026-05-03 23:09 | 43.64119 | -70.25674 | 692 ft | 137 kts | 279° |
| 2026-05-03 23:09 | 43.64208 | -70.26978 | 511 ft | 137 kts | 278° |
| 2026-05-03 23:09 | 43.64312 | -70.28308 | 335 ft | 140 kts | 278° |
| 2026-05-03 23:10 | 43.64345 | -70.29606 | 115 ft | 131 kts | 253° |
| 2026-05-03 23:10 | 43.64156 | -70.30812 | 244 ft | 122 kts | 258° |
| 2026-05-03 23:10 | 43.63871 | -70.31762 | 90 ft | 111 kts | 243° |
| 2026-05-03 23:10 | 43.63870 | -70.31864 | 65 ft | 0 kts | 115° |
| 2026-05-03 23:12 | 43.63871 | -70.31864 | 72 ft | 0 kts | 119° |